Time;durP1;ratioP1;P1;durP2;ratioP2;P2;SDS_P1;SDS_P2;PMS_P1;PMS_P2;Temp;Humidity;BMP_temperature;BMP_pressure;BME280_temperature;BME280_humidity;BME280_pressure;Samples;Min_cycle;Max_cycle;Signal;HPM_P1;HPM_P2
2023/01/09 00:00:49;;;;;;;1.02;1.00;;;;;;;;;;5094637;28;20058;-26
2023/01/09 00:03:15;;;;;;;1.52;1.10;;;;;;;;;;5094276;28;20024;-25
2023/01/09 00:05:41;;;;;;;0.93;0.93;;;;;;;;;;5094595;28;20054;-26
2023/01/09 00:08:08;;;;;;;0.90;0.90;;;;;;;;;;5094211;28;20024;-25
2023/01/09 00:10:34;;;;;;;1.45;1.30;;;;;;;;;;5094570;28;20024;-25
2023/01/09 00:13:00;;;;;;;1.08;0.98;;;;;;;;;;5094450;28;20027;-25
2023/01/09 00:15:26;;;;;;;1.08;1.08;;;;;;;;;;5094206;28;20040;-26
2023/01/09 00:17:52;;;;;;;1.20;1.10;;;;;;;;;;5094499;28;20031;-25
2023/01/09 00:20:19;;;;;;;2.15;1.00;;;;;;;;;;5094210;28;20050;-26
2023/01/09 00:22:45;;;;;;;1.20;1.20;;;;;;;;;;5094526;28;20328;-28
2023/01/09 00:25:11;;;;;;;1.35;1.27;;;;;;;;;;5094171;28;20116;-25
2023/01/09 00:27:37;;;;;;;0.95;0.95;;;;;;;;;;5097466;28;20020;-28
2023/01/09 00:30:03;;;;;;;1.02;1.02;;;;;;;;;;5098558;28;20047;-25
2023/01/09 00:32:30;;;;;;;1.10;1.10;;;;;;;;;;5097614;28;20028;-25
2023/01/09 00:34:56;;;;;;;1.23;1.13;;;;;;;;;;5097660;28;20133;-26
2023/01/09 00:37:22;;;;;;;0.98;0.98;;;;;;;;;;5097870;28;20035;-25
2023/01/09 00:39:48;;;;;;;1.13;1.02;;;;;;;;;;5097493;28;20039;-28
2023/01/09 00:42:18;;;;;;;0.95;0.95;;;;;;;;;;5097725;28;20034;-29
2023/01/09 00:44:46;;;;;;;0.70;0.70;;;;;;;;;;5097483;28;20016;-25
2023/01/09 00:47:14;;;;;;;1.23;1.10;;;;;;;;;;5097412;28;20046;-27
2023/01/09 00:49:40;;;;;;;1.33;1.23;;;;;;;;;;5097363;28;20024;-25
2023/01/09 00:52:09;;;;;;;1.13;1.05;;;;;;;;;;5097239;28;20024;-25
2023/01/09 00:54:36;;;;;;;1.33;1.25;;;;;;;;;;5097228;28;20024;-27
2023/01/09 00:57:02;;;;;;;1.10;1.00;;;;;;;;;;5097254;28;20046;-29
2023/01/09 00:59:28;;;;;;;2.13;1.30;;;;;;;;;;5097111;28;20508;-26
2023/01/09 01:01:55;;;;;;;1.15;0.90;;;;;;;;;;5097082;28;20028;-25
2023/01/09 01:09:50;;;;;;;1.25;1.00;;;;;;;;;;5097058;28;20058;-26
2023/01/09 01:12:16;;;;;;;0.88;0.88;;;;;;;;;;5097160;28;20020;-28
2023/01/09 01:14:42;;;;;;;0.80;0.80;;;;;;;;;;5096912;28;20032;-26
2023/01/09 01:17:09;;;;;;;1.33;1.20;;;;;;;;;;5096823;28;20036;-28
2023/01/09 01:19:35;;;;;;;1.17;1.13;;;;;;;;;;5096511;28;20067;-26
2023/01/09 01:22:02;;;;;;;1.30;1.00;;;;;;;;;;5097001;28;20115;-26
2023/01/09 01:24:28;;;;;;;1.30;1.20;;;;;;;;;;5096751;28;20103;-25
2023/01/09 01:26:54;;;;;;;1.25;1.17;;;;;;;;;;5096976;28;20012;-30
2023/01/09 01:29:20;;;;;;;0.73;0.73;;;;;;;;;;5096539;28;20484;-25
2023/01/09 01:31:46;;;;;;;0.90;0.90;;;;;;;;;;5096823;28;20024;-25
2023/01/09 01:34:12;;;;;;;1.13;1.10;;;;;;;;;;5096726;28;20062;-26
2023/01/09 01:36:38;;;;;;;0.93;0.93;;;;;;;;;;5096738;28;20115;-29
2023/01/09 01:39:04;;;;;;;0.90;0.90;;;;;;;;;;5096648;28;20027;-25
2023/01/09 01:41:30;;;;;;;0.93;0.93;;;;;;;;;;5096347;28;20026;-26
2023/01/09 01:44:07;;;;;;;1.13;1.05;;;;;;;;;;5096279;28;20044;-25
2023/01/09 01:46:34;;;;;;;0.95;0.95;;;;;;;;;;5096844;28;20035;-26
2023/01/09 01:49:05;;;;;;;0.88;0.88;;;;;;;;;;5096612;28;20405;-24
2023/01/09 01:51:33;;;;;;;1.05;1.05;;;;;;;;;;5096218;28;20061;-32
2023/01/09 01:54:01;;;;;;;1.30;1.20;;;;;;;;;;5096075;28;20032;-26
2023/01/09 01:56:29;;;;;;;1.13;1.13;;;;;;;;;;5096103;28;20462;-25
2023/01/09 01:58:56;;;;;;;1.10;1.00;;;;;;;;;;5095992;28;20085;-24
2023/01/09 02:01:22;;;;;;;1.15;1.10;;;;;;;;;;5095974;28;20121;-25
2023/01/09 02:03:49;;;;;;;1.70;1.60;;;;;;;;;;5095874;28;20027;-26
2023/01/09 02:06:15;;;;;;;1.15;1.15;;;;;;;;;;5095919;28;20028;-25
2023/01/09 02:08:42;;;;;;;1.10;1.10;;;;;;;;;;5095853;28;20062;-25
2023/01/09 02:11:11;;;;;;;1.00;1.00;;;;;;;;;;5096054;28;20032;-25
2023/01/09 02:13:39;;;;;;;1.25;1.17;;;;;;;;;;5095929;28;20028;-26
2023/01/09 02:16:08;;;;;;;0.80;0.80;;;;;;;;;;5096014;28;20089;-28
2023/01/09 02:18:44;;;;;;;1.00;1.00;;;;;;;;;;5095535;28;20032;-26
2023/01/09 02:21:34;;;;;;;0.85;0.85;;;;;;;;;;5095289;28;20044;-25
2023/01/09 02:24:15;;;;;;;0.85;0.85;;;;;;;;;;5095063;28;20040;-25
2023/01/09 02:26:51;;;;;;;1.45;1.20;;;;;;;;;;5095574;28;20039;-24
2023/01/09 02:29:20;;;;;;;1.15;1.15;;;;;;;;;;5095988;28;20024;-25
2023/01/09 02:31:59;;;;;;;1.08;0.98;;;;;;;;;;5095698;28;20438;-25
2023/01/09 02:34:52;;;;;;;1.30;1.20;;;;;;;;;;5095431;28;20448;-30
2023/01/09 02:37:41;;;;;;;1.05;1.05;;;;;;;;;;5095663;28;20024;-28
2023/01/09 02:40:21;;;;;;;0.75;0.75;;;;;;;;;;5095837;28;20027;-26
2023/01/09 02:42:47;;;;;;;1.00;1.00;;;;;;;;;;5095175;28;20028;-27
2023/01/09 02:45:14;;;;;;;1.20;1.10;;;;;;;;;;5095162;28;20043;-25
2023/01/09 02:47:44;;;;;;;1.00;1.00;;;;;;;;;;5095450;28;20027;-25
2023/01/09 02:50:13;;;;;;;0.87;0.87;;;;;;;;;;5095070;28;20363;-26
2023/01/09 02:52:48;;;;;;;1.23;1.13;;;;;;;;;;5094943;28;20481;-30
2023/01/09 02:55:33;;;;;;;1.40;1.30;;;;;;;;;;5095065;28;20028;-25
2023/01/09 02:58:17;;;;;;;1.92;1.83;;;;;;;;;;5094039;28;20046;-26
2023/01/09 03:00:55;;;;;;;0.85;0.85;;;;;;;;;;5094984;28;20035;-25
2023/01/09 03:03:31;;;;;;;1.02;1.02;;;;;;;;;;5094890;28;20036;-25
2023/01/09 03:06:17;;;;;;;0.85;0.85;;;;;;;;;;5094900;28;20056;-25
2023/01/09 03:08:46;;;;;;;1.17;1.08;;;;;;;;;;5094165;28;20067;-25
2023/01/09 03:11:12;;;;;;;1.25;1.10;;;;;;;;;;5094803;28;20016;-25
2023/01/09 03:13:52;;;;;;;1.20;1.10;;;;;;;;;;5094979;28;20099;-24
2023/01/09 03:16:21;;;;;;;1.20;1.20;;;;;;;;;;5094828;28;20540;-26
2023/01/09 03:18:49;;;;;;;1.10;0.93;;;;;;;;;;5094702;28;20408;-24
2023/01/09 03:21:16;;;;;;;1.10;1.10;;;;;;;;;;5094617;28;20105;-25
2023/01/09 03:24:00;;;;;;;1.33;1.23;;;;;;;;;;5094690;28;20185;-25
2023/01/09 03:26:28;;;;;;;1.10;1.00;;;;;;;;;;5095473;28;20020;-25
2023/01/09 03:28:55;;;;;;;1.08;1.08;;;;;;;;;;5094685;28;20384;-27
2023/01/09 03:31:21;;;;;;;0.82;0.82;;;;;;;;;;5094909;28;20433;-25
2023/01/09 03:33:47;;;;;;;1.33;1.23;;;;;;;;;;5094829;28;20032;-28
2023/01/09 03:36:14;;;;;;;1.33;1.17;;;;;;;;;;5094631;28;20035;-32
2023/01/09 03:38:40;;;;;;;0.85;0.85;;;;;;;;;;5094483;28;20504;-28
2023/01/09 03:41:06;;;;;;;1.60;1.05;;;;;;;;;;5094548;28;20027;-27
2023/01/09 03:43:33;;;;;;;1.60;1.30;;;;;;;;;;5094458;28;20035;-27
2023/01/09 03:45:59;;;;;;;1.15;0.95;;;;;;;;;;5094797;28;20036;-30
2023/01/09 03:48:25;;;;;;;1.10;1.10;;;;;;;;;;5094773;28;20320;-25
2023/01/09 03:50:52;;;;;;;1.10;1.10;;;;;;;;;;5094419;28;20024;-25
2023/01/09 03:53:19;;;;;;;1.00;1.00;;;;;;;;;;5094398;28;20367;-26
2023/01/09 03:55:46;;;;;;;1.75;1.65;;;;;;;;;;5093441;28;20447;-26
2023/01/09 03:58:12;;;;;;;1.00;1.00;;;;;;;;;;5094678;28;20047;-26
2023/01/09 04:00:39;;;;;;;1.15;1.05;;;;;;;;;;5094434;28;20258;-25
2023/01/09 04:03:06;;;;;;;1.27;1.17;;;;;;;;;;5098241;28;20035;-26
2023/01/09 04:05:32;;;;;;;0.82;0.82;;;;;;;;;;5098256;28;20051;-26
2023/01/09 04:07:58;;;;;;;1.00;1.00;;;;;;;;;;5098231;28;20027;-24
2023/01/09 04:10:24;;;;;;;1.05;0.98;;;;;;;;;;5098097;28;20077;-26
2023/01/09 04:12:50;;;;;;;1.38;1.02;;;;;;;;;;5096971;28;20038;-25
2023/01/09 04:15:16;;;;;;;1.02;1.02;;;;;;;;;;5098337;28;20024;-25
2023/01/09 04:17:43;;;;;;;0.82;0.82;;;;;;;;;;5098028;28;20355;-24
2023/01/09 04:20:09;;;;;;;0.85;0.85;;;;;;;;;;5097700;28;20040;-29
2023/01/09 04:22:35;;;;;;;2.58;1.00;;;;;;;;;;5097913;28;20031;-29
2023/01/09 04:25:01;;;;;;;0.95;0.95;;;;;;;;;;5097839;28;20089;-24
2023/01/09 04:27:28;;;;;;;1.30;1.20;;;;;;;;;;5098101;28;20149;-25
2023/01/09 04:29:54;;;;;;;1.40;1.30;;;;;;;;;;5098052;28;20051;-26
2023/01/09 04:32:20;;;;;;;1.13;1.05;;;;;;;;;;5096701;28;20504;-28
2023/01/09 04:34:46;;;;;;;1.17;1.08;;;;;;;;;;5097936;28;20024;-26
2023/01/09 04:37:12;;;;;;;0.98;0.95;;;;;;;;;;5098408;28;20039;-26
2023/01/09 04:39:42;;;;;;;1.50;1.40;;;;;;;;;;5097762;28;20039;-26
2023/01/09 04:42:08;;;;;;;1.10;1.00;;;;;;;;;;5097732;28;20080;-25
2023/01/09 04:44:34;;;;;;;1.58;1.27;;;;;;;;;;5097372;28;20085;-24
2023/01/09 04:47:00;;;;;;;1.02;1.02;;;;;;;;;;5097436;28;20024;-25
2023/01/09 04:49:27;;;;;;;1.10;1.10;;;;;;;;;;5097577;28;20028;-25
2023/01/09 04:51:53;;;;;;;1.25;1.15;;;;;;;;;;5096237;28;20089;-26
2023/01/09 04:54:19;;;;;;;2.85;0.90;;;;;;;;;;5097316;28;20059;-24
2023/01/09 04:56:45;;;;;;;1.40;1.30;;;;;;;;;;5096260;28;20032;-25
2023/01/09 04:59:11;;;;;;;1.30;1.20;;;;;;;;;;5097158;28;20029;-25
2023/01/09 05:01:38;;;;;;;1.90;1.40;;;;;;;;;;5096957;28;20118;-25
2023/01/09 05:04:04;;;;;;;1.23;1.13;;;;;;;;;;5096794;28;20020;-25
2023/01/09 05:06:30;;;;;;;1.25;1.15;;;;;;;;;;5097199;28;20059;-27
2023/01/09 05:08:56;;;;;;;0.88;0.88;;;;;;;;;;5096923;28;20031;-25
2023/01/09 05:11:24;;;;;;;1.75;1.15;;;;;;;;;;5096770;28;20145;-25
2023/01/09 05:13:50;;;;;;;1.20;1.10;;;;;;;;;;5096276;28;20039;-27
2023/01/09 05:16:16;;;;;;;2.25;1.00;;;;;;;;;;5096713;28;20028;-28
2023/01/09 05:18:42;;;;;;;2.30;1.45;;;;;;;;;;5097346;28;20112;-26
2023/01/09 05:21:09;;;;;;;1.38;1.27;;;;;;;;;;5096567;28;20114;-26
2023/01/09 05:23:35;;;;;;;1.00;1.00;;;;;;;;;;5096497;28;20431;-29
2023/01/09 05:26:03;;;;;;;1.45;1.25;;;;;;;;;;5096546;28;20028;-26
2023/01/09 05:28:29;;;;;;;1.20;1.10;;;;;;;;;;5096755;28;20371;-25
2023/01/09 05:30:55;;;;;;;1.60;1.38;;;;;;;;;;5096366;28;20032;-25
2023/01/09 05:33:22;;;;;;;3.08;1.20;;;;;;;;;;5096332;28;20024;-26
2023/01/09 05:35:48;;;;;;;2.85;1.25;;;;;;;;;;5095563;28;20036;-25
2023/01/09 05:38:14;;;;;;;3.90;1.45;;;;;;;;;;5096589;28;20031;-25
2023/01/09 05:40:40;;;;;;;1.50;1.40;;;;;;;;;;5095179;28;20055;-25
2023/01/09 05:43:06;;;;;;;6.53;1.45;;;;;;;;;;5096145;28;20053;-25
2023/01/09 05:45:33;;;;;;;3.38;1.67;;;;;;;;;;5095131;28;20367;-25
2023/01/09 05:47:59;;;;;;;3.60;1.35;;;;;;;;;;5096269;28;20061;-25
2023/01/09 05:50:25;;;;;;;5.90;1.38;;;;;;;;;;5096225;28;20024;-25
2023/01/09 05:52:51;;;;;;;7.57;3.08;;;;;;;;;;5095920;28;20107;-27
2023/01/09 05:55:17;;;;;;;1.35;1.20;;;;;;;;;;5096090;28;20075;-26
2023/01/09 05:57:43;;;;;;;1.27;1.23;;;;;;;;;;5095816;28;20031;-25
2023/01/09 06:00:10;;;;;;;2.65;1.48;;;;;;;;;;5095730;28;20367;-26
2023/01/09 06:02:36;;;;;;;5.38;1.50;;;;;;;;;;5559690;22;20055;-28
2023/01/09 06:05:02;;;;;;;5.05;1.60;;;;;;;;;;5095678;28;20101;-29
2023/01/09 06:07:29;;;;;;;4.05;1.30;;;;;;;;;;5095963;28;20430;-29
2023/01/09 06:09:55;;;;;;;1.40;1.15;;;;;;;;;;5095864;28;20057;-28
2023/01/09 06:12:21;;;;;;;3.88;1.52;;;;;;;;;;5095633;28;20024;-29
2023/01/09 06:14:47;;;;;;;1.40;1.30;;;;;;;;;;5095447;28;20032;-28
2023/01/09 06:17:13;;;;;;;3.25;1.38;;;;;;;;;;5095650;28;20097;-29
2023/01/09 06:19:40;;;;;;;5.75;1.65;;;;;;;;;;5095544;28;20024;-29
2023/01/09 06:22:06;;;;;;;4.60;1.35;;;;;;;;;;5095226;28;20108;-29
2023/01/09 06:24:32;;;;;;;1.42;1.30;;;;;;;;;;5094447;28;20048;-28
2023/01/09 06:26:58;;;;;;;5.15;1.33;;;;;;;;;;5095263;28;20031;-29
2023/01/09 06:29:24;;;;;;;2.70;1.38;;;;;;;;;;5095163;28;20067;-29
2023/01/09 06:31:50;;;;;;;2.40;1.52;;;;;;;;;;5095337;28;20020;-28
2023/01/09 06:34:16;;;;;;;5.95;1.55;;;;;;;;;;5095059;28;20063;-28
2023/01/09 06:36:43;;;;;;;2.72;1.52;;;;;;;;;;5094980;28;20036;-29
2023/01/09 06:39:09;;;;;;;2.55;1.52;;;;;;;;;;5095054;28;20042;-29
2023/01/09 06:41:36;;;;;;;8.10;1.40;;;;;;;;;;5077157;28;20028;-29
2023/01/09 06:44:02;;;;;;;6.80;1.98;;;;;;;;;;5094858;28;20035;-29
2023/01/09 06:46:28;;;;;;;2.33;1.48;;;;;;;;;;5094967;28;20016;-29
2023/01/09 06:48:54;;;;;;;10.18;1.63;;;;;;;;;;5094879;28;20032;-29
2023/01/09 06:51:20;;;;;;;2.65;1.63;;;;;;;;;;5094893;28;20028;-29
2023/01/09 06:53:46;;;;;;;5.65;1.25;;;;;;;;;;5094901;28;20051;-29
2023/01/09 06:56:13;;;;;;;3.20;1.23;;;;;;;;;;5095014;28;20110;-29
2023/01/09 06:58:39;;;;;;;1.63;1.45;;;;;;;;;;5094899;28;20038;-29
2023/01/09 07:01:05;;;;;;;2.33;1.52;;;;;;;;;;5094942;28;20365;-28
2023/01/09 07:03:31;;;;;;;3.20;1.30;;;;;;;;;;5094301;28;20040;-29
2023/01/09 07:05:57;;;;;;;1.42;1.00;;;;;;;;;;5094526;28;20028;-29
2023/01/09 07:08:23;;;;;;;1.55;1.40;;;;;;;;;;5094779;28;20024;-29
2023/01/09 07:10:49;;;;;;;1.75;1.40;;;;;;;;;;5094493;28;20415;-29
2023/01/09 07:13:15;;;;;;;8.38;1.95;;;;;;;;;;5094451;28;20052;-29
2023/01/09 07:15:42;;;;;;;8.10;1.85;;;;;;;;;;5094674;28;20130;-29
2023/01/09 07:18:08;;;;;;;2.45;1.45;;;;;;;;;;5094668;28;20031;-29
2023/01/09 07:20:34;;;;;;;3.08;1.88;;;;;;;;;;5094350;28;20052;-29
2023/01/09 07:23:00;;;;;;;2.40;1.58;;;;;;;;;;5094538;28;20028;-29
2023/01/09 07:25:26;;;;;;;2.67;1.40;;;;;;;;;;5076575;28;20064;-29
2023/01/09 07:27:53;;;;;;;2.10;1.60;;;;;;;;;;5094349;28;20028;-29
2023/01/09 07:30:19;;;;;;;4.68;1.65;;;;;;;;;;5094349;28;20097;-32
2023/01/09 07:32:45;;;;;;;6.90;1.83;;;;;;;;;;5094171;28;20030;-29
2023/01/09 07:35:11;;;;;;;1.23;1.13;;;;;;;;;;5077611;28;20035;-29
2023/01/09 07:37:37;;;;;;;12.63;2.25;;;;;;;;;;5098452;28;20024;-29
2023/01/09 07:40:03;;;;;;;3.30;1.48;;;;;;;;;;5098615;28;20054;-29
2023/01/09 07:42:30;;;;;;;7.65;2.45;;;;;;;;;;5098512;28;20441;-29
2023/01/09 07:44:56;;;;;;;7.43;1.45;;;;;;;;;;5098501;28;20028;-29
2023/01/09 07:47:22;;;;;;;3.20;1.50;;;;;;;;;;5098179;28;20454;-29
2023/01/09 07:49:48;;;;;;;10.93;1.52;;;;;;;;;;5098046;28;20060;-28
2023/01/09 07:52:14;;;;;;;4.57;1.70;;;;;;;;;;5079969;28;20039;-29
2023/01/09 07:54:41;;;;;;;13.30;3.97;;;;;;;;;;5098184;28;20465;-29
2023/01/09 07:57:07;;;;;;;4.07;1.90;;;;;;;;;;5080372;28;20032;-28
2023/01/09 07:59:33;;;;;;;3.78;1.63;;;;;;;;;;5098027;28;20028;-29
2023/01/09 08:02:01;;;;;;;3.45;1.70;;;;;;;;;;5098288;28;20016;-29
2023/01/09 08:04:27;;;;;;;3.17;1.40;;;;;;;;;;5097818;28;20381;-28
2023/01/09 08:06:53;;;;;;;5.03;1.80;;;;;;;;;;5097924;28;20449;-29
2023/01/09 08:09:19;;;;;;;2.75;1.90;;;;;;;;;;5098038;28;20028;-28
2023/01/09 08:11:45;;;;;;;3.38;1.88;;;;;;;;;;5097796;28;20028;-29
2023/01/09 08:14:12;;;;;;;5.75;1.35;;;;;;;;;;5097716;28;20124;-29
2023/01/09 08:16:38;;;;;;;3.72;1.23;;;;;;;;;;5097705;28;20545;-29
2023/01/09 08:19:04;;;;;;;3.83;1.67;;;;;;;;;;5097791;28;20063;-29
2023/01/09 08:21:30;;;;;;;4.25;1.30;;;;;;;;;;5097611;28;20099;-29
2023/01/09 08:23:56;;;;;;;4.43;1.48;;;;;;;;;;5097835;28;20024;-29
2023/01/09 08:26:23;;;;;;;4.38;1.60;;;;;;;;;;5079758;28;20383;-29
2023/01/09 08:28:49;;;;;;;5.40;1.88;;;;;;;;;;5097833;28;20031;-29
2023/01/09 08:31:15;;;;;;;5.10;1.63;;;;;;;;;;5097668;28;20062;-28
2023/01/09 08:33:41;;;;;;;4.38;1.38;;;;;;;;;;5097405;28;20115;-28
2023/01/09 08:36:08;;;;;;;5.30;2.42;;;;;;;;;;5097371;28;20024;-29
2023/01/09 08:38:34;;;;;;;3.72;1.73;;;;;;;;;;5097337;28;20111;-29
2023/01/09 08:47:04;;;;;;;4.10;1.85;;;;;;;;;;5097235;28;20024;-29
2023/01/09 08:49:15;;;;;;;3.88;1.77;;;;;;;;;;5097344;28;20070;-28
2023/01/09 08:51:41;;;;;;;3.58;1.58;;;;;;;;;;5097122;28;20028;-29
2023/01/09 08:54:08;;;;;;;4.35;1.80;;;;;;;;;;5097157;28;20028;-29
2023/01/09 08:56:34;;;;;;;4.40;1.80;;;;;;;;;;5079213;28;20088;-29
2023/01/09 08:59:00;;;;;;;2.15;1.52;;;;;;;;;;5096969;28;20434;-29
2023/01/09 09:01:26;;;;;;;4.85;1.42;;;;;;;;;;5097362;28;20370;-29
2023/01/09 09:03:52;;;;;;;4.13;1.60;;;;;;;;;;5097213;28;20044;-28
2023/01/09 09:06:18;;;;;;;4.60;2.63;;;;;;;;;;5097164;28;20098;-29
2023/01/09 09:08:44;;;;;;;3.00;1.48;;;;;;;;;;5096611;28;20047;-29
2023/01/09 09:11:10;;;;;;;3.78;1.88;;;;;;;;;;5096895;28;20450;-29
2023/01/09 09:13:37;;;;;;;3.88;1.67;;;;;;;;;;5096505;28;20024;-28
2023/01/09 09:16:03;;;;;;;5.75;1.85;;;;;;;;;;5096732;28;20147;-29
2023/01/09 09:18:29;;;;;;;2.72;1.63;;;;;;;;;;5078402;28;20119;-29
2023/01/09 09:20:55;;;;;;;3.70;1.40;;;;;;;;;;5096159;28;20085;-29
2023/01/09 09:23:22;;;;;;;2.75;1.67;;;;;;;;;;5078329;28;20093;-29
2023/01/09 09:25:48;;;;;;;5.50;2.13;;;;;;;;;;5096184;28;20028;-28
2023/01/09 09:28:15;;;;;;;4.75;2.00;;;;;;;;;;5096003;28;20077;-27
2023/01/09 09:30:41;;;;;;;2.35;1.60;;;;;;;;;;5095877;28;20032;-27
2023/01/09 09:33:07;;;;;;;4.03;2.05;;;;;;;;;;5095766;28;20089;-27
2023/01/09 09:35:34;;;;;;;7.95;1.33;;;;;;;;;;5095748;28;20034;-28
2023/01/09 09:38:01;;;;;;;5.13;2.20;;;;;;;;;;5095991;28;20460;-28
2023/01/09 09:40:51;;;;;;;5.80;1.45;;;;;;;;;;5096216;28;20085;-28
2023/01/09 09:46:22;;;;;;;4.80;1.83;;;;;;;;;;5096642;28;20374;-28
2023/01/09 09:48:54;;;;;;;4.57;1.60;;;;;;;;;;5096498;28;20024;-28
2023/01/09 09:51:32;;;;;;;1.92;1.40;;;;;;;;;;5096392;28;20416;-28
2023/01/09 09:54:05;;;;;;;7.93;1.73;;;;;;;;;;5095959;28;20450;-28
2023/01/09 09:56:34;;;;;;;4.07;2.42;;;;;;;;;;5095964;28;20028;-28
2023/01/09 09:59:12;;;;;;;3.97;2.00;;;;;;;;;;5094741;28;20034;-28
2023/01/09 10:01:40;;;;;;;6.75;2.40;;;;;;;;;;5078035;28;20066;-28
2023/01/09 10:04:14;;;;;;;2.95;2.15;;;;;;;;;;5095582;28;20044;-28
2023/01/09 10:06:43;;;;;;;7.50;2.97;;;;;;;;;;5096129;28;20028;-28
2023/01/09 10:09:32;;;;;;;3.92;2.00;;;;;;;;;;5095766;28;20038;-28
2023/01/09 10:11:58;;;;;;;4.18;1.60;;;;;;;;;;5087580;28;20046;-29
2023/01/09 10:14:24;;;;;;;4.43;1.90;;;;;;;;;;5095936;28;20035;-29
2023/01/09 10:16:54;;;;;;;4.30;1.73;;;;;;;;;;5077717;28;20060;-28
2023/01/09 10:19:26;;;;;;;5.78;2.20;;;;;;;;;;5095417;28;20111;-27
2023/01/09 10:22:10;;;;;;;4.40;2.10;;;;;;;;;;5095594;28;20407;-28
2023/01/09 10:24:37;;;;;;;8.07;2.15;;;;;;;;;;5095240;28;20036;-28
2023/01/09 10:27:10;;;;;;;10.35;2.47;;;;;;;;;;5095189;28;20024;-28
2023/01/09 10:29:41;;;;;;;4.50;1.80;;;;;;;;;;5095415;28;20051;-29
2023/01/09 10:32:30;;;;;;;12.85;2.45;;;;;;;;;;5095306;28;20365;-29
2023/01/09 10:35:15;;;;;;;6.40;1.77;;;;;;;;;;5049361;28;20086;-28
2023/01/09 10:37:46;;;;;;;4.50;1.80;;;;;;;;;;5094833;28;20084;-29
2023/01/09 10:40:15;;;;;;;2.78;1.55;;;;;;;;;;5094773;28;20036;-28
2023/01/09 10:42:44;;;;;;;1.63;1.48;;;;;;;;;;5094779;28;20020;-29
2023/01/09 10:45:19;;;;;;;5.28;2.22;;;;;;;;;;5094838;28;20070;-28
2023/01/09 10:47:45;;;;;;;2.42;1.77;;;;;;;;;;5094955;28;20027;-29
2023/01/09 10:50:21;;;;;;;3.92;1.88;;;;;;;;;;5094743;28;20032;-28
2023/01/09 10:52:52;;;;;;;10.20;2.00;;;;;;;;;;5094760;28;20024;-28
2023/01/09 10:55:27;;;;;;;13.00;2.07;;;;;;;;;;5095084;28;20028;-28
2023/01/09 10:57:56;;;;;;;5.15;2.25;;;;;;;;;;5094889;28;20277;-28
2023/01/09 11:00:24;;;;;;;11.07;1.70;;;;;;;;;;5094508;28;20032;-28
2023/01/09 11:02:54;;;;;;;9.20;2.00;;;;;;;;;;5094153;28;20072;-27
2023/01/09 11:05:25;;;;;;;6.88;1.88;;;;;;;;;;5094627;28;20031;-29
2023/01/09 11:08:04;;;;;;;5.30;2.50;;;;;;;;;;5094765;28;20350;-28
2023/01/09 11:10:50;;;;;;;10.55;2.05;;;;;;;;;;5094173;28;20105;-28
2023/01/09 11:13:19;;;;;;;6.00;1.63;;;;;;;;;;5094253;28;20074;-28
2023/01/09 11:15:45;;;;;;;7.10;2.85;;;;;;;;;;5095332;28;20470;-28
2023/01/09 11:18:23;;;;;;;16.63;3.83;;;;;;;;;;5094698;28;20106;-28
2023/01/09 11:20:51;;;;;;;6.82;2.20;;;;;;;;;;5094427;28;20131;-28
2023/01/09 11:23:31;;;;;;;10.05;2.65;;;;;;;;;;5076524;28;20030;-29
2023/01/09 11:25:59;;;;;;;9.55;2.30;;;;;;;;;;5094792;28;20031;-28
2023/01/09 11:28:25;;;;;;;5.22;2.78;;;;;;;;;;5076729;28;20020;-28
2023/01/09 11:30:56;;;;;;;12.60;2.63;;;;;;;;;;5094532;28;20034;-30
2023/01/09 11:33:23;;;;;;;;;;;;;;;;;;5094825;28;20362;-28
2023/01/09 11:36:14;;;;;;;11.55;2.40;;;;;;;;;;5094771;28;19938;-29
2023/01/09 11:38:52;;;;;;;3.95;1.88;;;;;;;;;;5095188;28;20111;-28
2023/01/09 11:41:23;;;;;;;8.45;2.10;;;;;;;;;;5094691;28;20031;-29
2023/01/09 11:43:49;;;;;;;;;;;;;;;;;;5095065;28;20017;-28
2023/01/09 11:46:42;;;;;;;5.72;2.03;;;;;;;;;;5094414;28;19911;-29
2023/01/09 11:49:15;;;;;;;10.25;1.98;;;;;;;;;;5092192;28;20040;-29
2023/01/09 11:51:42;;;;;;;11.07;2.05;;;;;;;;;;5094317;28;20024;-29
2023/01/09 11:54:11;;;;;;;7.43;2.42;;;;;;;;;;5094287;28;20024;-29
2023/01/09 11:56:37;;;;;;;12.40;2.00;;;;;;;;;;5094255;28;20028;-28
2023/01/09 11:59:14;;;;;;;8.80;1.85;;;;;;;;;;5094415;28;20032;-28
2023/01/09 12:01:58;;;;;;;10.45;2.80;;;;;;;;;;5094305;28;20035;-29
2023/01/09 12:04:43;;;;;;;7.78;1.98;;;;;;;;;;5093789;28;20040;-29
2023/01/09 12:07:22;;;;;;;7.05;2.30;;;;;;;;;;5094419;28;20032;-29
2023/01/09 12:10:05;;;;;;;6.65;1.90;;;;;;;;;;5094038;28;20107;-28
2023/01/09 12:12:54;;;;;;;6.30;2.10;;;;;;;;;;5076555;28;20039;-30
2023/01/09 12:15:27;;;;;;;9.40;2.92;;;;;;;;;;5094575;28;20481;-29
2023/01/09 12:17:56;;;;;;;3.97;2.05;;;;;;;;;;5094154;28;20034;-32
2023/01/09 12:20:22;;;;;;;6.07;1.98;;;;;;;;;;5094223;28;20431;-30
2023/01/09 12:23:00;;;;;;;4.65;1.73;;;;;;;;;;5095917;28;20028;-29
2023/01/09 12:25:29;;;;;;;7.93;2.10;;;;;;;;;;5097840;28;20063;-28
2023/01/09 12:28:01;;;;;;;9.45;2.20;;;;;;;;;;5097575;28;20107;-29
2023/01/09 12:30:31;;;;;;;15.85;3.10;;;;;;;;;;5097588;28;20130;-28
2023/01/09 12:32:57;;;;;;;8.73;2.33;;;;;;;;;;5079642;28;20111;-28
2023/01/09 12:35:31;;;;;;;7.45;1.85;;;;;;;;;;5097413;28;20042;-29
2023/01/09 12:38:06;;;;;;;14.32;3.05;;;;;;;;;;5097609;28;20031;-28
2023/01/09 12:40:32;;;;;;;8.88;2.10;;;;;;;;;;5097200;28;20115;-29
2023/01/09 12:43:04;;;;;;;7.07;2.28;;;;;;;;;;5097126;28;20443;-29
2023/01/09 12:45:49;;;;;;;6.50;2.30;;;;;;;;;;5097386;28;20020;-29
2023/01/09 12:48:21;;;;;;;10.25;2.72;;;;;;;;;;5097375;28;20052;-29
2023/01/09 12:51:13;;;;;;;12.68;2.30;;;;;;;;;;5097288;28;20403;-29
2023/01/09 12:53:46;;;;;;;11.40;2.80;;;;;;;;;;5097403;28;20081;-29
2023/01/09 12:56:18;;;;;;;8.40;2.33;;;;;;;;;;5079499;28;20036;-29
2023/01/09 12:58:52;;;;;;;10.52;2.90;;;;;;;;;;5097306;28;20052;-29
2023/01/09 13:01:40;;;;;;;6.85;1.75;;;;;;;;;;5097384;28;20085;-29
2023/01/09 13:04:14;;;;;;;7.88;2.05;;;;;;;;;;5097392;28;20051;-29
2023/01/09 13:06:44;;;;;;;9.90;2.90;;;;;;;;;;5097316;28;20401;-29
2023/01/09 13:09:10;;;;;;;5.85;2.13;;;;;;;;;;5097136;28;20427;-29
2023/01/09 13:11:39;;;;;;;12.70;2.28;;;;;;;;;;5096731;28;20096;-29
2023/01/09 13:14:15;;;;;;;11.82;2.20;;;;;;;;;;5096769;28;20028;-29
2023/01/09 13:16:44;;;;;;;8.77;2.75;;;;;;;;;;5096793;28;20335;-29
2023/01/09 13:19:16;;;;;;;36.38;5.15;;;;;;;;;;5096655;28;20336;-29
2023/01/09 13:21:43;;;;;;;30.83;4.32;;;;;;;;;;5096597;28;20024;-29
2023/01/09 13:24:27;;;;;;;9.57;2.55;;;;;;;;;;5096632;28;20447;-27
2023/01/09 13:26:58;;;;;;;8.77;3.47;;;;;;;;;;5096544;28;20020;-28
2023/01/09 13:29:28;;;;;;;12.30;3.47;;;;;;;;;;5096486;28;20088;-28
2023/01/09 13:32:13;;;;;;;21.77;3.47;;;;;;;;;;5096365;28;20366;-28
2023/01/09 13:34:40;;;;;;;20.00;3.53;;;;;;;;;;5095925;28;20043;-28
2023/01/09 13:37:19;;;;;;;16.67;3.35;;;;;;;;;;5096135;28;20039;-28
2023/01/09 13:39:54;;;;;;;17.17;3.10;;;;;;;;;;5096587;28;20397;-28
2023/01/09 13:42:35;;;;;;;9.88;2.60;;;;;;;;;;5096215;28;20024;-27
2023/01/09 13:45:19;;;;;;;17.48;2.63;;;;;;;;;;5096230;28;20085;-28
2023/01/09 13:47:45;;;;;;;18.40;2.88;;;;;;;;;;5096236;28;20024;-28
2023/01/09 13:50:11;;;;;;;23.33;3.10;;;;;;;;;;5096244;28;20028;-27
2023/01/09 13:52:41;;;;;;;12.30;2.97;;;;;;;;;;5095756;28;20039;-28
2023/01/09 13:55:13;;;;;;;8.82;2.55;;;;;;;;;;5096079;28;20394;-30
2023/01/09 13:57:44;;;;;;;14.57;2.83;;;;;;;;;;5096085;28;20106;-30
2023/01/09 14:00:13;;;;;;;9.95;1.90;;;;;;;;;;5077805;28;20035;-28
2023/01/09 14:02:43;;;;;;;4.90;2.08;;;;;;;;;;5095665;28;20040;-28
2023/01/09 14:05:24;;;;;;;8.13;2.90;;;;;;;;;;5095902;28;20059;-28
2023/01/09 14:07:50;;;;;;;;;;;;;;;;;;5096057;28;20261;-28
2023/01/09 14:10:19;;;;;;;4.95;2.33;;;;;;;;;;5095916;28;20235;-28
2023/01/09 14:12:46;;;;;;;10.80;2.42;;;;;;;;;;5095510;28;20153;-28
2023/01/09 14:15:43;;;;;;;6.15;2.92;;;;;;;;;;5095526;28;20028;-28
2023/01/09 14:18:21;;;;;;;7.72;1.95;;;;;;;;;;5083901;28;20351;-28
2023/01/09 14:20:54;;;;;;;10.20;2.55;;;;;;;;;;5095452;28;20475;-27
2023/01/09 14:23:28;;;;;;;12.82;2.40;;;;;;;;;;5095968;28;20081;-27
2023/01/09 14:25:55;;;;;;;17.92;4.35;;;;;;;;;;5095660;28;20500;-27
2023/01/09 14:28:22;;;;;;;16.23;2.97;;;;;;;;;;5095375;28;20020;-28
2023/01/09 14:30:51;;;;;;;9.65;3.47;;;;;;;;;;5095677;28;20525;-28
2023/01/09 14:33:18;;;;;;;14.43;2.63;;;;;;;;;;5095186;28;20040;-28
2023/01/09 14:35:47;;;;;;;9.00;2.58;;;;;;;;;;5095503;28;20031;-29
2023/01/09 14:38:17;;;;;;;7.65;2.65;;;;;;;;;;5095196;28;20476;-28
2023/01/09 14:40:48;;;;;;;17.65;2.95;;;;;;;;;;5095024;28;20043;-28
2023/01/09 14:43:26;;;;;;;22.30;4.13;;;;;;;;;;5077182;28;20028;-27
2023/01/09 14:45:54;;;;;;;7.95;3.08;;;;;;;;;;5094670;28;20044;-28
2023/01/09 14:48:23;;;;;;;25.88;3.63;;;;;;;;;;5077192;28;20032;-27
2023/01/09 14:50:54;;;;;;;18.73;3.65;;;;;;;;;;5095307;28;20036;-28
2023/01/09 14:53:20;;;;;;;9.32;2.72;;;;;;;;;;5077075;28;20028;-28
2023/01/09 14:55:53;;;;;;;16.23;3.10;;;;;;;;;;5094893;28;20462;-28
2023/01/09 14:58:24;;;;;;;15.45;2.88;;;;;;;;;;5094826;28;20081;-28
2023/01/09 15:00:50;;;;;;;;;;;;;;;;;;5095032;28;20094;-27
2023/01/09 15:03:17;;;;;;;14.98;2.60;;;;;;;;;;5076743;28;19957;-28
2023/01/09 15:05:43;;;;;;;6.88;2.47;;;;;;;;;;5076790;28;20063;-28
2023/01/09 15:08:12;;;;;;;19.45;2.92;;;;;;;;;;5094558;28;20043;-28
2023/01/09 15:10:38;;;;;;;8.60;2.50;;;;;;;;;;5076798;28;20501;-28